Time;durP1;ratioP1;P1;durP2;ratioP2;P2;SDS_P1;SDS_P2;PMS_P1;PMS_P2;Temp;Humidity;BMP_temperature;BMP_pressure;BME280_temperature;BME280_humidity;BME280_pressure;Samples;Min_cycle;Max_cycle;Signal;HPM_P1;HPM_P2
2023/11/25 00:02:15;;;;;;;0.98;0.70;;;;;;;;;;5095137;28;20222;-61
2023/11/25 00:04:43;;;;;;;3.92;1.35;;;;;;;;;;5094963;28;20686;-61
2023/11/25 00:07:10;;;;;;;1.83;1.02;;;;;;;;;;5094967;28;20189;-61
2023/11/25 00:09:37;;;;;;;1.50;1.10;;;;;;;;;;5095191;28;20251;-61
2023/11/25 00:12:04;;;;;;;1.80;0.70;;;;;;;;;;5095041;28;20280;-61
2023/11/25 00:14:30;;;;;;;0.80;0.75;;;;;;;;;;5094813;28;20695;-62
2023/11/25 00:16:59;;;;;;;2.85;0.73;;;;;;;;;;5094561;28;20216;-61
2023/11/25 00:19:26;;;;;;;2.90;1.20;;;;;;;;;;5094713;28;20208;-61
2023/11/25 00:21:53;;;;;;;3.25;1.98;;;;;;;;;;5094634;28;20224;-62
2023/11/25 00:24:20;;;;;;;2.20;0.90;;;;;;;;;;5094875;28;20192;-62
2023/11/25 00:26:47;;;;;;;1.30;0.90;;;;;;;;;;5094772;28;20627;-61
2023/11/25 00:29:15;;;;;;;1.20;0.90;;;;;;;;;;5094679;28;20184;-61
2023/11/25 00:31:42;;;;;;;2.97;0.90;;;;;;;;;;5094555;28;20279;-62
2023/11/25 00:34:10;;;;;;;3.10;1.63;;;;;;;;;;5094417;28;20191;-62
2023/11/25 00:36:37;;;;;;;1.83;1.00;;;;;;;;;;5094903;28;20276;-62
2023/11/25 00:39:06;;;;;;;1.33;1.00;;;;;;;;;;5093879;28;20283;-61
2023/11/25 00:41:33;;;;;;;2.60;1.30;;;;;;;;;;5094460;28;20199;-62
2023/11/25 00:44:03;;;;;;;2.88;1.15;;;;;;;;;;5094405;28;20185;-62
2023/11/25 00:46:30;;;;;;;2.28;1.17;;;;;;;;;;5094316;28;20214;-62
2023/11/25 00:48:57;;;;;;;1.92;1.33;;;;;;;;;;5094083;28;20279;-61
2023/11/25 00:51:25;;;;;;;1.30;1.00;;;;;;;;;;5094363;28;20279;-62
2023/11/25 00:53:52;;;;;;;1.35;1.15;;;;;;;;;;5094225;28;20192;-62
2023/11/25 00:56:19;;;;;;;3.85;1.60;;;;;;;;;;5094182;28;20613;-62
2023/11/25 00:58:46;;;;;;;2.47;1.20;;;;;;;;;;5094340;28;20195;-62
2023/11/25 01:01:13;;;;;;;2.45;1.20;;;;;;;;;;5093834;28;20231;-61
2023/11/25 01:03:40;;;;;;;1.42;1.05;;;;;;;;;;5094096;28;20227;-61
2023/11/25 01:06:08;;;;;;;3.03;1.30;;;;;;;;;;5094010;28;20193;-62
2023/11/25 01:08:37;;;;;;;2.85;1.30;;;;;;;;;;5093898;28;20297;-62
2023/11/25 01:11:05;;;;;;;4.10;1.30;;;;;;;;;;5093852;28;20210;-61
2023/11/25 01:13:32;;;;;;;1.52;1.20;;;;;;;;;;5093784;28;20185;-61
2023/11/25 01:16:00;;;;;;;4.15;1.55;;;;;;;;;;5093509;28;20628;-62
2023/11/25 01:18:27;;;;;;;4.03;1.13;;;;;;;;;;5093892;28;20280;-62
2023/11/25 01:20:55;;;;;;;2.00;1.00;;;;;;;;;;5093668;28;20245;-61
2023/11/25 01:23:22;;;;;;;1.45;1.20;;;;;;;;;;5093653;28;20188;-61
2023/11/25 01:25:50;;;;;;;4.18;1.35;;;;;;;;;;5093557;28;20197;-61
2023/11/25 01:28:17;;;;;;;4.47;1.20;;;;;;;;;;5093528;28;20631;-61
2023/11/25 01:30:44;;;;;;;2.13;1.00;;;;;;;;;;5093703;28;20275;-61
2023/11/25 01:33:12;;;;;;;2.80;1.10;;;;;;;;;;5093598;28;20283;-61
2023/11/25 01:35:39;;;;;;;3.90;1.20;;;;;;;;;;5093735;28;20257;-61
2023/11/25 01:38:06;;;;;;;2.90;0.82;;;;;;;;;;5093405;28;20220;-62
2023/11/25 01:40:33;;;;;;;1.70;1.20;;;;;;;;;;5093211;28;20213;-61
2023/11/25 01:43:01;;;;;;;3.25;1.10;;;;;;;;;;5093206;28;20648;-61
2023/11/25 01:45:28;;;;;;;3.35;1.38;;;;;;;;;;5093927;28;20199;-61
2023/11/25 01:47:57;;;;;;;2.78;1.60;;;;;;;;;;5093365;28;20279;-61
2023/11/25 01:50:25;;;;;;;1.13;0.88;;;;;;;;;;5092234;28;20663;-61
2023/11/25 01:52:53;;;;;;;5.85;1.15;;;;;;;;;;5093216;28;20188;-61
2023/11/25 01:55:21;;;;;;;3.53;1.13;;;;;;;;;;5093137;28;20189;-62
2023/11/25 01:57:48;;;;;;;3.78;1.30;;;;;;;;;;5093307;28;20602;-61
2023/11/25 02:00:17;;;;;;;5.00;1.20;;;;;;;;;;5093167;28;20652;-61
2023/11/25 02:02:45;;;;;;;2.10;1.08;;;;;;;;;;5093123;28;20195;-61
2023/11/25 02:05:12;;;;;;;4.20;0.90;;;;;;;;;;5093216;28;20283;-61
2023/11/25 02:07:39;;;;;;;1.13;1.00;;;;;;;;;;5093041;28;20192;-61
2023/11/25 02:10:09;;;;;;;1.00;0.90;;;;;;;;;;5092939;28;20242;-62
2023/11/25 02:12:38;;;;;;;4.30;1.15;;;;;;;;;;5093388;28;20192;-61
2023/11/25 02:15:08;;;;;;;3.85;1.00;;;;;;;;;;5093040;28;20188;-61
2023/11/25 02:17:38;;;;;;;1.75;1.33;;;;;;;;;;5092879;28;20670;-61
2023/11/25 02:20:05;;;;;;;1.38;0.88;;;;;;;;;;5092856;28;20694;-61
2023/11/25 02:22:33;;;;;;;4.28;0.82;;;;;;;;;;5092833;28;20189;-61
2023/11/25 02:25:02;;;;;;;2.72;0.90;;;;;;;;;;5093076;28;20276;-61
2023/11/25 02:27:29;;;;;;;1.77;0.90;;;;;;;;;;5093219;28;20193;-61
2023/11/25 02:29:56;;;;;;;2.50;0.90;;;;;;;;;;5092858;28;20275;-61
2023/11/25 02:32:24;;;;;;;1.13;1.00;;;;;;;;;;5092870;28;20189;-61
2023/11/25 02:34:50;;;;;;;2.33;1.00;;;;;;;;;;5092798;28;20713;-61
2023/11/25 02:37:19;;;;;;;6.50;1.20;;;;;;;;;;5092676;28;20596;-61
2023/11/25 02:39:46;;;;;;;8.93;1.00;;;;;;;;;;5092834;28;20184;-61
2023/11/25 02:42:15;;;;;;;2.30;0.85;;;;;;;;;;5092914;28;20735;-61
2023/11/25 02:44:42;;;;;;;2.08;0.90;;;;;;;;;;5092788;28;20215;-61
2023/11/25 02:47:09;;;;;;;1.42;0.90;;;;;;;;;;5092783;28;20195;-62
2023/11/25 02:49:36;;;;;;;2.30;0.95;;;;;;;;;;5092558;28;20280;-61
2023/11/25 02:52:04;;;;;;;3.70;1.30;;;;;;;;;;5092982;28;20203;-61
2023/11/25 02:54:31;;;;;;;2.15;0.90;;;;;;;;;;5092759;28;20188;-61
2023/11/25 02:56:58;;;;;;;3.95;1.10;;;;;;;;;;5092688;28;20654;-61
2023/11/25 02:59:27;;;;;;;3.25;1.17;;;;;;;;;;5092614;28;20196;-61
2023/11/25 03:01:54;;;;;;;3.92;1.20;;;;;;;;;;5094520;28;20224;-61
2023/11/25 03:04:23;;;;;;;6.45;1.13;;;;;;;;;;5096168;28;20276;-61
2023/11/25 03:06:51;;;;;;;1.75;0.70;;;;;;;;;;5096169;28;20184;-62
2023/11/25 03:09:18;;;;;;;2.90;1.08;;;;;;;;;;5096233;28;20234;-61
2023/11/25 03:11:45;;;;;;;1.70;0.90;;;;;;;;;;5096176;28;20192;-61
2023/11/25 03:14:15;;;;;;;2.15;1.02;;;;;;;;;;5096277;28;20707;-61
2023/11/25 03:16:43;;;;;;;1.83;1.27;;;;;;;;;;5095939;28;20228;-61
2023/11/25 03:19:10;;;;;;;4.40;1.30;;;;;;;;;;5096165;28;20310;-61
2023/11/25 03:21:38;;;;;;;3.08;0.95;;;;;;;;;;5096002;28;20293;-61
2023/11/25 03:24:07;;;;;;;3.67;0.90;;;;;;;;;;5096023;28;20196;-61
2023/11/25 03:26:34;;;;;;;0.90;0.70;;;;;;;;;;5095919;28;20189;-61
2023/11/25 03:29:01;;;;;;;1.83;0.77;;;;;;;;;;5095828;28;20185;-61
2023/11/25 03:31:28;;;;;;;2.10;0.90;;;;;;;;;;5095650;28;20718;-61
2023/11/25 03:33:56;;;;;;;2.55;1.10;;;;;;;;;;5095828;28;20275;-61
2023/11/25 03:36:23;;;;;;;4.40;1.25;;;;;;;;;;5095801;28;20275;-61
2023/11/25 03:38:51;;;;;;;2.05;1.02;;;;;;;;;;5095699;28;20596;-61
2023/11/25 03:41:17;;;;;;;2.63;1.23;;;;;;;;;;5095563;28;20228;-61
2023/11/25 03:43:44;;;;;;;4.00;1.15;;;;;;;;;;5095484;28;20257;-61
2023/11/25 03:46:13;;;;;;;2.10;1.05;;;;;;;;;;5095686;28;20299;-61
2023/11/25 03:48:40;;;;;;;1.25;1.10;;;;;;;;;;5095518;28;20189;-61
2023/11/25 03:51:11;;;;;;;2.40;0.90;;;;;;;;;;5095443;28;20279;-61
2023/11/25 03:53:38;;;;;;;4.18;1.40;;;;;;;;;;5095378;28;20192;-61
2023/11/25 03:56:06;;;;;;;2.20;1.00;;;;;;;;;;5095273;28;20331;-61
2023/11/25 03:58:33;;;;;;;1.77;0.80;;;;;;;;;;5095233;28;20619;-61
2023/11/25 04:00:59;;;;;;;1.92;1.40;;;;;;;;;;5095256;28;20222;-61
2023/11/25 04:03:26;;;;;;;1.43;1.00;;;;;;;;;;5095236;28;20287;-61
2023/11/25 04:05:53;;;;;;;4.85;0.95;;;;;;;;;;5095129;28;20446;-61
2023/11/25 04:08:21;;;;;;;1.50;0.85;;;;;;;;;;5095006;28;20191;-61
2023/11/25 04:10:48;;;;;;;4.40;1.05;;;;;;;;;;5094918;28;20196;-61
2023/11/25 04:13:15;;;;;;;2.88;1.40;;;;;;;;;;5094075;28;20195;-61
2023/11/25 04:15:42;;;;;;;1.60;0.85;;;;;;;;;;5094772;28;20774;-61
2023/11/25 04:18:09;;;;;;;3.45;1.15;;;;;;;;;;5094941;28;20199;-61
2023/11/25 04:20:36;;;;;;;6.78;1.40;;;;;;;;;;5094782;28;20301;-61
2023/11/25 04:23:06;;;;;;;2.25;1.27;;;;;;;;;;5094804;28;20192;-61
2023/11/25 04:25:34;;;;;;;3.17;1.20;;;;;;;;;;5094629;28;20670;-61
2023/11/25 04:28:01;;;;;;;3.50;1.58;;;;;;;;;;5094819;28;20280;-61
2023/11/25 04:30:28;;;;;;;4.85;1.05;;;;;;;;;;5094727;28;20402;-61
2023/11/25 04:32:55;;;;;;;1.90;1.17;;;;;;;;;;5094621;28;20195;-61
2023/11/25 04:35:22;;;;;;;3.55;1.17;;;;;;;;;;5094566;28;20220;-61
2023/11/25 04:37:49;;;;;;;2.13;1.15;;;;;;;;;;5094437;28;20712;-61
2023/11/25 04:40:16;;;;;;;3.20;1.70;;;;;;;;;;5094519;28;20276;-61
2023/11/25 04:42:45;;;;;;;4.93;1.35;;;;;;;;;;5094507;28;20188;-61
2023/11/25 04:45:16;;;;;;;2.50;1.25;;;;;;;;;;5094437;28;20185;-61
2023/11/25 04:47:44;;;;;;;6.28;1.77;;;;;;;;;;5094421;28;20548;-61
2023/11/25 04:50:12;;;;;;;2.08;1.55;;;;;;;;;;5094273;28;20537;-61
2023/11/25 04:52:39;;;;;;;10.45;1.83;;;;;;;;;;5094058;28;20195;-61
2023/11/25 04:55:07;;;;;;;3.55;1.25;;;;;;;;;;5094234;28;20275;-60
2023/11/25 04:57:34;;;;;;;2.95;1.88;;;;;;;;;;5094169;28;20200;-61
2023/11/25 05:00:08;;;;;;;2.47;1.52;;;;;;;;;;5094169;28;20246;-61
2023/11/25 05:02:35;;;;;;;3.70;1.50;;;;;;;;;;5094005;28;20219;-62
2023/11/25 05:05:03;;;;;;;2.85;1.83;;;;;;;;;;5093917;28;20189;-61
2023/11/25 05:07:30;;;;;;;2.60;1.92;;;;;;;;;;5094043;28;20553;-61
2023/11/25 05:09:57;;;;;;;2.55;1.50;;;;;;;;;;5093793;28;20711;-61
2023/11/25 05:12:24;;;;;;;4.63;1.83;;;;;;;;;;5093984;28;20651;-61
2023/11/25 05:14:51;;;;;;;4.60;1.50;;;;;;;;;;5093861;28;20228;-61
2023/11/25 05:17:20;;;;;;;2.65;2.00;;;;;;;;;;5093403;28;20307;-60
2023/11/25 05:19:47;;;;;;;4.38;1.60;;;;;;;;;;5093559;28;20250;-60
2023/11/25 05:22:15;;;;;;;4.00;2.22;;;;;;;;;;5093530;28;20682;-61
2023/11/25 05:24:41;;;;;;;5.18;2.40;;;;;;;;;;5093605;28;20279;-61
2023/11/25 05:27:09;;;;;;;1.92;1.80;;;;;;;;;;5093678;28;20194;-61
2023/11/25 05:29:36;;;;;;;11.52;2.33;;;;;;;;;;5093652;28;20185;-61
2023/11/25 05:32:03;;;;;;;2.75;1.95;;;;;;;;;;5093583;28;20674;-62
2023/11/25 05:34:32;;;;;;;1.70;1.60;;;;;;;;;;5093597;28;20192;-61
2023/11/25 05:37:00;;;;;;;4.47;2.13;;;;;;;;;;5093554;28;20196;-61
2023/11/25 05:39:28;;;;;;;3.90;2.03;;;;;;;;;;5093432;28;20603;-61
2023/11/25 05:41:55;;;;;;;5.45;1.70;;;;;;;;;;5093377;28;20576;-61
2023/11/25 05:44:25;;;;;;;6.25;1.48;;;;;;;;;;5093305;28;20216;-61
2023/11/25 05:46:54;;;;;;;4.65;1.75;;;;;;;;;;5093231;28;20246;-61
2023/11/25 05:49:22;;;;;;;3.75;1.88;;;;;;;;;;5093391;28;20200;-61
2023/11/25 05:51:51;;;;;;;8.18;1.80;;;;;;;;;;5093313;28;20382;-61
2023/11/25 05:54:18;;;;;;;5.75;2.03;;;;;;;;;;5093258;28;20190;-62
2023/11/25 05:56:45;;;;;;;11.60;5.05;;;;;;;;;;5093139;28;20241;-62
2023/11/25 05:59:12;;;;;;;5.97;2.38;;;;;;;;;;5093039;28;20267;-62
2023/11/25 06:01:39;;;;;;;4.05;2.08;;;;;;;;;;5093213;28;20311;-62
2023/11/25 06:04:06;;;;;;;5.80;2.33;;;;;;;;;;5093256;28;20196;-62
2023/11/25 06:06:33;;;;;;;6.88;2.75;;;;;;;;;;5093435;28;20231;-62
2023/11/25 06:09:02;;;;;;;6.28;2.53;;;;;;;;;;5093058;28;20193;-62
2023/11/25 06:11:32;;;;;;;9.88;3.10;;;;;;;;;;5092983;28;20336;-62
2023/11/25 06:13:59;;;;;;;7.80;3.95;;;;;;;;;;5092953;28;20193;-62
2023/11/25 06:16:26;;;;;;;3.53;2.53;;;;;;;;;;5092992;28;20248;-62
2023/11/25 06:18:54;;;;;;;7.05;1.38;;;;;;;;;;5093047;28;20287;-62
2023/11/25 06:21:21;;;;;;;3.65;1.75;;;;;;;;;;5093075;28;20215;-62
2023/11/25 06:23:50;;;;;;;4.10;3.33;;;;;;;;;;5092971;28;20281;-62
2023/11/25 06:26:19;;;;;;;4.70;1.60;;;;;;;;;;5093035;28;20283;-61
2023/11/25 06:28:48;;;;;;;5.25;1.50;;;;;;;;;;5093020;28;20189;-62
2023/11/25 06:31:16;;;;;;;3.15;1.88;;;;;;;;;;5092992;28;20265;-62
2023/11/25 06:33:45;;;;;;;2.88;1.65;;;;;;;;;;5092842;28;20216;-61
2023/11/25 06:36:12;;;;;;;7.93;2.30;;;;;;;;;;5093560;28;20189;-61
2023/11/25 06:38:39;;;;;;;3.10;1.77;;;;;;;;;;5096694;28;20287;-61
2023/11/25 06:41:07;;;;;;;6.75;2.75;;;;;;;;;;5096869;28;20248;-62
2023/11/25 06:43:38;;;;;;;3.83;1.58;;;;;;;;;;5096635;28;20659;-61
2023/11/25 06:46:05;;;;;;;4.95;1.40;;;;;;;;;;5096766;28;20189;-61
2023/11/25 06:48:33;;;;;;;10.68;1.80;;;;;;;;;;5096574;28;20189;-61
2023/11/25 06:51:00;;;;;;;3.88;1.98;;;;;;;;;;5096522;28;20631;-61
2023/11/25 06:53:28;;;;;;;5.50;2.35;;;;;;;;;;5096704;28;20193;-61
2023/11/25 06:55:55;;;;;;;6.25;1.88;;;;;;;;;;5096589;28;20219;-61
2023/11/25 06:58:22;;;;;;;4.80;1.80;;;;;;;;;;5096486;28;20246;-61
2023/11/25 07:00:51;;;;;;;3.95;1.50;;;;;;;;;;5096319;28;20555;-61
2023/11/25 07:03:18;;;;;;;3.70;1.55;;;;;;;;;;5096355;28;20199;-62
2023/11/25 07:05:45;;;;;;;6.47;1.73;;;;;;;;;;5096263;28;20315;-62
2023/11/25 07:08:12;;;;;;;4.70;1.85;;;;;;;;;;5096224;28;20731;-61
2023/11/25 07:10:40;;;;;;;3.55;2.03;;;;;;;;;;5096300;28;20257;-61
2023/11/25 07:13:07;;;;;;;3.33;1.70;;;;;;;;;;5096218;28;20257;-61
2023/11/25 07:15:35;;;;;;;5.88;2.00;;;;;;;;;;5095988;28;20217;-62
2023/11/25 07:18:05;;;;;;;3.35;2.20;;;;;;;;;;5096044;28;20272;-61
2023/11/25 07:20:33;;;;;;;5.93;2.35;;;;;;;;;;5095990;28;20200;-61
2023/11/25 07:23:00;;;;;;;6.65;2.65;;;;;;;;;;5095985;28;20262;-61
2023/11/25 07:25:29;;;;;;;3.80;2.40;;;;;;;;;;5095883;28;20544;-61
2023/11/25 07:27:56;;;;;;;5.22;1.90;;;;;;;;;;5095819;28;20193;-62
2023/11/25 07:30:23;;;;;;;4.00;1.77;;;;;;;;;;5095817;28;20289;-62
2023/11/25 07:32:49;;;;;;;2.45;1.48;;;;;;;;;;5095694;28;20193;-61
2023/11/25 07:35:18;;;;;;;4.07;1.60;;;;;;;;;;5095627;28;20185;-61
2023/11/25 07:37:45;;;;;;;4.03;1.58;;;;;;;;;;5095785;28;20626;-61
2023/11/25 07:40:14;;;;;;;3.15;1.42;;;;;;;;;;5095711;28;20243;-61
2023/11/25 07:42:42;;;;;;;20.17;3.10;;;;;;;;;;5095369;28;20212;-61
2023/11/25 07:45:10;;;;;;;3.45;2.17;;;;;;;;;;5095544;28;20220;-61
2023/11/25 07:47:37;;;;;;;8.30;2.00;;;;;;;;;;5095339;28;20320;-61
2023/11/25 07:50:04;;;;;;;7.43;2.15;;;;;;;;;;5095553;28;20385;-61
2023/11/25 07:52:32;;;;;;;4.47;2.25;;;;;;;;;;5095428;28;20189;-61
2023/11/25 07:54:59;;;;;;;6.25;1.92;;;;;;;;;;5095345;28;20189;-62
2023/11/25 07:57:26;;;;;;;3.63;2.10;;;;;;;;;;5095329;28;20299;-62
2023/11/25 07:59:53;;;;;;;7.00;1.70;;;;;;;;;;5095122;28;20238;-61
2023/11/25 08:02:20;;;;;;;3.25;1.98;;;;;;;;;;5095025;28;20636;-61
2023/11/25 08:04:47;;;;;;;3.65;1.48;;;;;;;;;;5095187;28;20279;-61
2023/11/25 08:07:14;;;;;;;4.90;2.15;;;;;;;;;;5095057;28;20271;-61
2023/11/25 08:09:42;;;;;;;4.55;1.73;;;;;;;;;;5095037;28;20189;-62
2023/11/25 08:12:10;;;;;;;3.45;1.30;;;;;;;;;;5095000;28;20269;-61
2023/11/25 08:14:37;;;;;;;7.03;2.30;;;;;;;;;;5094820;28;20234;-61
2023/11/25 08:17:04;;;;;;;4.97;1.65;;;;;;;;;;5094546;28;20303;-61
2023/11/25 08:19:31;;;;;;;8.10;2.78;;;;;;;;;;5095011;28;20224;-62
2023/11/25 08:21:58;;;;;;;2.33;1.67;;;;;;;;;;5094713;28;20614;-62
2023/11/25 08:24:25;;;;;;;9.52;2.10;;;;;;;;;;5094756;28;20272;-61
2023/11/25 08:26:53;;;;;;;3.45;1.80;;;;;;;;;;5094628;28;20188;-62
2023/11/25 08:29:20;;;;;;;2.30;1.90;;;;;;;;;;5094441;28;20280;-62
2023/11/25 08:31:47;;;;;;;2.25;1.60;;;;;;;;;;5094790;28;20235;-61
2023/11/25 08:34:14;;;;;;;5.72;2.53;;;;;;;;;;5094154;28;20189;-61
2023/11/25 08:36:52;;;;;;;4.32;1.83;;;;;;;;;;5094493;28;20222;-62
2023/11/25 08:39:21;;;;;;;5.93;2.15;;;;;;;;;;5094538;28;20241;-61
2023/11/25 08:41:48;;;;;;;6.05;2.25;;;;;;;;;;5094223;28;20217;-62
2023/11/25 08:44:16;;;;;;;6.15;2.15;;;;;;;;;;5094540;28;20196;-61
2023/11/25 08:46:44;;;;;;;5.95;2.10;;;;;;;;;;5094377;28;20615;-62
2023/11/25 08:49:12;;;;;;;13.82;3.35;;;;;;;;;;5094299;28;20204;-62
2023/11/25 08:51:40;;;;;;;8.23;3.17;;;;;;;;;;5094222;28;20714;-62
2023/11/25 08:54:08;;;;;;;3.88;1.90;;;;;;;;;;5094050;28;20192;-61
2023/11/25 08:56:36;;;;;;;6.55;1.77;;;;;;;;;;5094078;28;20556;-61
2023/11/25 08:59:03;;;;;;;4.60;2.30;;;;;;;;;;5093706;28;20192;-62
2023/11/25 09:01:38;;;;;;;4.80;1.80;;;;;;;;;;5094005;28;20437;-61
2023/11/25 09:04:06;;;;;;;9.75;2.53;;;;;;;;;;5094060;28;20196;-61
2023/11/25 09:06:36;;;;;;;7.13;2.05;;;;;;;;;;5093927;28;20200;-62
2023/11/25 09:09:03;;;;;;;5.00;2.40;;;;;;;;;;5094223;28;20196;-62
2023/11/25 09:11:30;;;;;;;2.20;2.00;;;;;;;;;;5094147;28;20560;-60
2023/11/25 09:13:57;;;;;;;2.15;1.48;;;;;;;;;;5093922;28;20188;-59
2023/11/25 09:16:24;;;;;;;5.05;1.95;;;;;;;;;;5093765;28;20289;-60
2023/11/25 09:18:53;;;;;;;3.72;1.85;;;;;;;;;;5093742;28;20278;-59
2023/11/25 09:21:20;;;;;;;3.85;2.05;;;;;;;;;;5093520;28;20189;-62
2023/11/25 09:23:47;;;;;;;4.68;1.95;;;;;;;;;;5093687;28;20232;-62
2023/11/25 09:26:13;;;;;;;3.10;1.70;;;;;;;;;;5093688;28;20204;-62
2023/11/25 09:28:41;;;;;;;2.78;2.00;;;;;;;;;;5093602;28;20199;-62
2023/11/25 09:31:07;;;;;;;3.53;1.80;;;;;;;;;;5093503;28;20214;-60
2023/11/25 09:33:36;;;;;;;3.50;2.05;;;;;;;;;;5093374;28;20283;-62
2023/11/25 09:36:04;;;;;;;3.65;1.85;;;;;;;;;;5093215;28;20198;-60
2023/11/25 09:38:32;;;;;;;4.25;2.00;;;;;;;;;;5093210;28;20280;-60
2023/11/25 09:40:59;;;;;;;5.50;2.03;;;;;;;;;;5093290;28;20234;-60
2023/11/25 09:43:27;;;;;;;2.28;1.65;;;;;;;;;;5093390;28;20307;-60
2023/11/25 09:45:54;;;;;;;3.72;1.77;;;;;;;;;;5093306;28;20558;-60
2023/11/25 09:48:21;;;;;;;3.58;2.40;;;;;;;;;;5092994;28;20199;-60
2023/11/25 09:50:49;;;;;;;9.35;3.25;;;;;;;;;;5093400;28;20192;-60
2023/11/25 09:53:23;;;;;;;4.15;2.40;;;;;;;;;;5093130;28;20276;-60
2023/11/25 09:55:55;;;;;;;4.25;3.40;;;;;;;;;;5093042;28;20654;-60
2023/11/25 09:58:23;;;;;;;5.20;2.53;;;;;;;;;;5093288;28;20555;-60
2023/11/25 10:00:51;;;;;;;5.90;2.80;;;;;;;;;;5092801;28;20739;-60
2023/11/25 10:03:19;;;;;;;2.38;2.10;;;;;;;;;;5093179;28;20478;-60
2023/11/25 10:05:46;;;;;;;5.05;2.70;;;;;;;;;;5093046;28;20189;-60
2023/11/25 10:08:13;;;;;;;2.08;1.80;;;;;;;;;;5092988;28;20188;-60
2023/11/25 10:10:41;;;;;;;7.82;3.53;;;;;;;;;;5092924;28;20195;-60
2023/11/25 10:13:14;;;;;;;6.25;2.35;;;;;;;;;;5097206;28;20276;-60
2023/11/25 10:15:46;;;;;;;5.93;2.42;;;;;;;;;;5097086;28;20224;-60
2023/11/25 10:18:13;;;;;;;1.98;1.88;;;;;;;;;;5097237;28;20192;-60
2023/11/25 10:20:42;;;;;;;4.90;2.40;;;;;;;;;;5097144;28;20609;-60
2023/11/25 10:23:09;;;;;;;5.22;2.05;;;;;;;;;;5097041;28;20662;-60
2023/11/25 10:25:36;;;;;;;7.00;1.88;;;;;;;;;;5097246;28;20275;-60
2023/11/25 10:28:09;;;;;;;5.50;1.92;;;;;;;;;;5096789;28;20275;-60
2023/11/25 10:30:36;;;;;;;2.38;2.15;;;;;;;;;;5097094;28;20598;-60
2023/11/25 10:33:04;;;;;;;4.43;2.13;;;;;;;;;;5096741;28;20199;-60
2023/11/25 10:35:31;;;;;;;7.47;2.80;;;;;;;;;;5096903;28;20195;-60
2023/11/25 10:37:58;;;;;;;5.75;2.20;;;;;;;;;;5096755;28;20188;-60
2023/11/25 10:40:27;;;;;;;3.95;1.73;;;;;;;;;;5096640;28;20189;-60
2023/11/25 10:42:54;;;;;;;3.75;1.48;;;;;;;;;;5096736;28;20256;-60
2023/11/25 10:45:27;;;;;;;10.73;6.30;;;;;;;;;;5096707;28;20575;-60
2023/11/25 10:47:55;;;;;;;3.38;1.70;;;;;;;;;;5096721;28;20275;-60
2023/11/25 10:50:25;;;;;;;3.70;2.90;;;;;;;;;;5096429;28;20193;-60
2023/11/25 10:52:54;;;;;;;7.75;2.05;;;;;;;;;;5096333;28;20188;-60
2023/11/25 10:55:22;;;;;;;6.65;2.22;;;;;;;;;;5096519;28;20818;-60
2023/11/25 10:57:49;;;;;;;9.55;3.10;;;;;;;;;;5096333;28;20647;-60
2023/11/25 11:00:17;;;;;;;4.93;2.55;;;;;;;;;;5096470;28;20279;-60
2023/11/25 11:02:49;;;;;;;5.00;2.90;;;;;;;;;;5096260;28;20219;-60
2023/11/25 11:05:19;;;;;;;8.60;3.85;;;;;;;;;;5096472;28;20196;-60
2023/11/25 11:07:49;;;;;;;4.55;1.70;;;;;;;;;;5096387;28;20188;-60
2023/11/25 11:10:26;;;;;;;5.40;2.15;;;;;;;;;;5096253;28;20185;-61
2023/11/25 11:12:56;;;;;;;3.50;3.20;;;;;;;;;;5096115;28;20279;-60
2023/11/25 11:15:24;;;;;;;6.18;2.45;;;;;;;;;;5095918;28;20311;-61
2023/11/25 11:17:56;;;;;;;5.97;2.50;;;;;;;;;;5095773;28;20227;-61
2023/11/25 11:20:24;;;;;;;4.82;1.80;;;;;;;;;;5096461;28;20279;-61
2023/11/25 11:22:51;;;;;;;2.77;2.17;;;;;;;;;;5095505;28;20212;-61
2023/11/25 11:25:22;;;;;;;6.22;2.78;;;;;;;;;;5095828;28;20446;-61
2023/11/25 11:27:55;;;;;;;4.30;2.80;;;;;;;;;;5095845;28;20188;-61
2023/11/25 11:30:26;;;;;;;10.60;4.50;;;;;;;;;;5095806;28;20602;-61
2023/11/25 11:32:54;;;;;;;6.55;5.13;;;;;;;;;;5095879;28;20249;-62
2023/11/25 11:35:21;;;;;;;5.07;3.80;;;;;;;;;;5095696;28;20188;-61
2023/11/25 11:37:49;;;;;;;4.80;2.83;;;;;;;;;;5095708;28;20442;-62
2023/11/25 11:40:16;;;;;;;5.10;2.70;;;;;;;;;;5095591;28;20442;-61
2023/11/25 11:42:47;;;;;;;3.33;2.25;;;;;;;;;;5095364;28;20223;-61
2023/11/25 11:45:25;;;;;;;7.22;3.03;;;;;;;;;;5095207;28;20555;-61
2023/11/25 11:47:52;;;;;;;8.10;3.22;;;;;;;;;;5095622;28;20279;-61
2023/11/25 11:50:22;;;;;;;10.18;3.60;;;;;;;;;;5095461;28;20279;-62
2023/11/25 11:52:50;;;;;;;4.68;2.70;;;;;;;;;;5095478;28;20196;-62
2023/11/25 11:55:36;;;;;;;5.10;3.05;;;;;;;;;;5095264;28;20580;-62
2023/11/25 11:58:04;;;;;;;11.20;3.70;;;;;;;;;;5095324;28;20193;-61
2023/11/25 12:00:32;;;;;;;7.13;3.00;;;;;;;;;;5095232;28;20227;-61
2023/11/25 12:02:59;;;;;;;5.97;3.40;;;;;;;;;;5095085;28;20466;-62
2023/11/25 12:05:28;;;;;;;3.57;3.27;;;;;;;;;;5095035;28;20279;-62
2023/11/25 12:07:55;;;;;;;4.70;3.50;;;;;;;;;;5094821;28;20555;-62
2023/11/25 12:10:22;;;;;;;7.00;4.17;;;;;;;;;;5095036;28;20191;-62
2023/11/25 12:12:51;;;;;;;6.80;3.77;;;;;;;;;;5095228;28;20482;-62
2023/11/25 12:15:18;;;;;;;4.05;3.20;;;;;;;;;;5094818;28;20825;-62
2023/11/25 12:17:45;;;;;;;7.35;4.18;;;;;;;;;;5094667;28;20188;-62
2023/11/25 12:20:13;;;;;;;3.53;3.05;;;;;;;;;;5094618;28;20276;-62
2023/11/25 12:22:41;;;;;;;4.30;2.30;;;;;;;;;;5094447;28;20215;-61
2023/11/25 12:25:13;;;;;;;7.10;2.90;;;;;;;;;;5094841;28;20537;-61
2023/11/25 12:27:41;;;;;;;11.75;3.08;;;;;;;;;;5094682;28;20450;-62
2023/11/25 12:30:09;;;;;;;6.37;2.73;;;;;;;;;;5094633;28;20276;-62
2023/11/25 12:32:37;;;;;;;5.75;2.10;;;;;;;;;;5094480;28;20451;-62
2023/11/25 12:35:06;;;;;;;3.25;2.20;;;;;;;;;;5093574;28;20207;-62
2023/11/25 12:37:34;;;;;;;2.83;2.45;;;;;;;;;;5094638;28;20192;-62
2023/11/25 12:40:17;;;;;;;8.35;3.20;;;;;;;;;;5094504;28;20267;-62
2023/11/25 12:42:46;;;;;;;8.85;3.20;;;;;;;;;;5094378;28;20251;-62
2023/11/25 12:45:28;;;;;;;3.95;3.25;;;;;;;;;;5094310;28;20276;-62
2023/11/25 12:47:55;;;;;;;3.93;3.40;;;;;;;;;;5094468;28;20196;-61
2023/11/25 12:50:22;;;;;;;7.27;3.70;;;;;;;;;;5094083;28;20534;-62
2023/11/25 12:53:02;;;;;;;7.20;3.37;;;;;;;;;;5094078;28;20976;-62
2023/11/25 12:55:37;;;;;;;9.25;3.45;;;;;;;;;;5094095;28;20814;-62
2023/11/25 12:58:07;;;;;;;4.47;2.27;;;;;;;;;;5093969;28;20237;-62
2023/11/25 13:00:34;;;;;;;1.70;1.60;;;;;;;;;;5094156;28;20453;-62
2023/11/25 13:03:03;;;;;;;2.22;1.52;;;;;;;;;;5093912;28;20439;-62
2023/11/25 13:05:30;;;;;;;3.43;2.23;;;;;;;;;;5093943;28;20564;-62
2023/11/25 13:07:57;;;;;;;2.50;1.90;;;;;;;;;;5093867;28;20546;-62
2023/11/25 13:10:24;;;;;;;2.55;1.38;;;;;;;;;;5093727;28;20189;-62
2023/11/25 13:12:51;;;;;;;3.55;2.63;;;;;;;;;;5093922;28;20238;-62
2023/11/25 13:15:19;;;;;;;2.13;1.50;;;;;;;;;;5093794;28;20212;-62
2023/11/25 13:17:47;;;;;;;1.67;1.58;;;;;;;;;;5093810;28;20184;-62
2023/11/25 13:20:16;;;;;;;1.25;1.15;;;;;;;;;;5093619;28;20246;-62
2023/11/25 13:22:44;;;;;;;2.40;2.13;;;;;;;;;;5093575;28;20211;-62
2023/11/25 13:25:12;;;;;;;1.65;1.40;;;;;;;;;;5093370;28;20220;-62
2023/11/25 13:27:39;;;;;;;3.72;1.95;;;;;;;;;;5093731;28;20228;-62
2023/11/25 13:30:06;;;;;;;3.08;1.85;;;;;;;;;;5093557;28;20283;-62
2023/11/25 13:32:35;;;;;;;1.80;1.70;;;;;;;;;;5093664;28;20185;-62
2023/11/25 13:35:02;;;;;;;1.77;1.67;;;;;;;;;;5093363;28;20200;-62
2023/11/25 13:37:29;;;;;;;1.77;1.67;;;;;;;;;;5093296;28;20271;-62
2023/11/25 13:39:56;;;;;;;2.10;2.00;;;;;;;;;;5093535;28;20200;-62
2023/11/25 13:42:24;;;;;;;1.80;1.70;;;;;;;;;;5093493;28;20188;-62
2023/11/25 13:44:51;;;;;;;1.67;1.58;;;;;;;;;;5093197;28;20642;-62
2023/11/25 13:47:18;;;;;;;2.67;2.47;;;;;;;;;;5093460;28;20195;-62
2023/11/25 13:49:46;;;;;;;2.72;2.45;;;;;;;;;;5093219;28;20191;-62
2023/11/25 13:52:13;;;;;;;2.72;2.40;;;;;;;;;;5092849;28;20629;-62
2023/11/25 13:54:40;;;;;;;2.28;2.08;;;;;;;;;;5093283;28;20192;-62
2023/11/25 13:57:07;;;;;;;2.83;2.60;;;;;;;;;;5092927;28;20192;-62
2023/11/25 13:59:34;;;;;;;2.60;2.40;;;;;;;;;;5093018;28;20644;-62
2023/11/25 14:02:02;;;;;;;3.30;3.10;;;;;;;;;;5093128;28;20625;-62
2023/11/25 14:04:31;;;;;;;4.10;3.78;;;;;;;;;;5092842;28;20215;-62
2023/11/25 14:07:00;;;;;;;3.60;3.40;;;;;;;;;;5092957;28;20188;-62
2023/11/25 14:09:27;;;;;;;3.60;3.30;;;;;;;;;;5093142;28;20552;-62
2023/11/25 14:11:54;;;;;;;4.03;3.63;;;;;;;;;;5093065;28;20193;-62
2023/11/25 14:14:21;;;;;;;4.63;4.22;;;;;;;;;;5093105;28;20197;-62
2023/11/25 14:16:48;;;;;;;4.55;4.25;;;;;;;;;;5092904;28;20256;-62
2023/11/25 14:19:15;;;;;;;4.65;4.30;;;;;;;;;;5092961;28;20242;-62
2023/11/25 14:21:43;;;;;;;4.80;4.43;;;;;;;;;;5093107;28;20191;-62
2023/11/25 14:24:11;;;;;;;5.18;4.78;;;;;;;;;;5092888;28;20626;-62
2023/11/25 14:26:38;;;;;;;4.53;4.20;;;;;;;;;;5092952;28;20188;-62
2023/11/25 14:29:05;;;;;;;4.78;4.28;;;;;;;;;;5092772;28;20184;-62
2023/11/25 14:31:32;;;;;;;4.45;4.05;;;;;;;;;;5092827;28;20184;-62
2023/11/25 14:33:59;;;;;;;5.45;5.00;;;;;;;;;;5093055;28;20246;-62
2023/11/25 14:36:27;;;;;;;6.57;5.80;;;;;;;;;;5092919;28;20196;-62
2023/11/25 14:38:55;;;;;;;7.68;6.30;;;;;;;;;;5092869;28;20184;-62
2023/11/25 14:41:24;;;;;;;7.10;6.00;;;;;;;;;;5092775;28;20189;-62
2023/11/25 14:43:51;;;;;;;5.03;4.63;;;;;;;;;;5092783;28;20232;-62
2023/11/25 14:46:18;;;;;;;4.55;4.15;;;;;;;;;;5092571;28;20223;-62
2023/11/25 14:48:45;;;;;;;4.85;4.28;;;;;;;;;;5092843;28;20287;-62